»·PEaware :: N187HP KCMA-L52

N187HP :: KCMA-L52

FLIGHT INFORMATION

Flight Status: Arrived
Operator: Privately registered:
United States
More flights under this callsign
Pilot: Nicholas T. (33918)
Aircraft: BEECH AIRCRAFT BONANZA
(BE36)
More flights by this aircraft type
Origin: KCMA Camarillo
United States
Destination: L52 Oceano Co
United States
More flights between these airports :: More routes between these airports
Route:
File this flight plan on PilotEdge
Remarks:
Altitude:
(Current/Filed)
8,500ft
Speed:
(Current/Filed)
110kts
Departed: 23-Feb-21 08:48 AM
Arrived: 23-Feb-21 09:46 AM
Distance/Time
Traveled:
92nm/0:58
Distance/Time
To Go:
Arrived

Flight Plot

Page will automatically refresh every two minutes.

Flight plan parsing failed; only flown route is shown


Map Options




Map Legend


Flown Route
Filed Route
Departure Airport
Arrival Airport
Navaid (VOR, NDB)
Fix

Horizontal Profiles

Position Reports

Time Latitude Longitude Heading Altitude Ground
Speed
23-Feb-21 08:34 34.209977 -119.078429 89 79ft 0kts
23-Feb-21 08:35 34.209977 -119.078429 89 79ft 0kts
23-Feb-21 08:36 34.209977 -119.078429 89 79ft 0kts
23-Feb-21 08:37 34.209978 -119.078429 89 79ft 0kts
23-Feb-21 08:38 34.209978 -119.078429 89 79ft 0kts
23-Feb-21 08:39 34.209978 -119.078429 89 79ft 0kts
23-Feb-21 08:40 34.210798 -119.078299 337 80ft 8kts
23-Feb-21 08:41 34.210916 -119.083119 269 79ft 18kts
23-Feb-21 08:42 34.212885 -119.084611 358 78ft 0kts
23-Feb-21 08:43 34.212885 -119.084611 358 78ft 0kts
23-Feb-21 08:44 34.212885 -119.084611 358 78ft 0kts
23-Feb-21 08:45 34.212885 -119.084611 358 78ft 0kts
23-Feb-21 08:46 34.213690 -119.085149 270 78ft 0kts
23-Feb-21 08:47 34.213848 -119.111848 268 777ft 113kts
23-Feb-21 08:48 34.212380 -119.150144 268 2232ft 116kts
23-Feb-21 08:50 34.219946 -119.186957 302 3475ft 119kts
23-Feb-21 08:51 34.238374 -119.220510 303 4635ft 118kts
23-Feb-21 08:52 34.258583 -119.252601 320 5696ft 121kts
23-Feb-21 08:53 34.283658 -119.279924 319 6749ft 121kts
23-Feb-21 08:54 34.307178 -119.309365 316 7719ft 122kts
23-Feb-21 08:55 34.331061 -119.338688 317 8432ft 127kts
23-Feb-21 08:56 34.353568 -119.362556 321 8426ft 92kts
23-Feb-21 08:57 34.372748 -119.382564 321 8451ft 92kts
23-Feb-21 08:58 34.392743 -119.403441 321 8442ft 96kts
23-Feb-21 08:59 34.412890 -119.424333 321 8427ft 92kts
23-Feb-21 09:00 34.431282 -119.445870 308 8441ft 93kts
23-Feb-21 09:01 34.445595 -119.471414 307 8379ft 91kts
23-Feb-21 09:02 34.459337 -119.496901 307 8364ft 89kts
23-Feb-21 09:03 34.473201 -119.522208 307 8331ft 90kts
23-Feb-21 09:04 34.487540 -119.548273 307 8470ft 100kts
23-Feb-21 09:05 34.503965 -119.577406 307 8486ft 103kts
23-Feb-21 09:06 34.519796 -119.605465 307 8430ft 95kts
23-Feb-21 09:07 34.533851 -119.631034 306 8400ft 90kts
23-Feb-21 09:08 34.547658 -119.656213 307 8409ft 90kts
23-Feb-21 09:09 34.561749 -119.681648 307 8387ft 90kts
23-Feb-21 09:10 34.575584 -119.706866 307 8382ft 88kts
23-Feb-21 09:11 34.589257 -119.731875 307 8263ft 89kts
23-Feb-21 09:11 34.601006 -119.752740 307 8149ft 88kts
23-Feb-21 09:13 34.617253 -119.782171 307 8363ft 90kts
23-Feb-21 09:14 34.631412 -119.807783 306 8389ft 95kts
23-Feb-21 09:15 34.645506 -119.833336 307 8341ft 89kts
23-Feb-21 09:16 34.659267 -119.858659 307 8350ft 89kts
23-Feb-21 09:16 34.670753 -119.879713 307 8340ft 89kts
23-Feb-21 09:17 34.684490 -119.904875 307 8346ft 89kts
23-Feb-21 09:18 34.698155 -119.930079 307 8276ft 89kts
23-Feb-21 09:20 34.714124 -119.959353 307 8219ft 89kts
23-Feb-21 09:20 34.725446 -119.980184 307 8277ft 88kts
23-Feb-21 09:21 34.738980 -120.005179 307 8331ft 88kts
23-Feb-21 09:22 34.752819 -120.030809 307 8446ft 95kts
23-Feb-21 09:23 34.767241 -120.057178 307 8363ft 93kts
23-Feb-21 09:24 34.781138 -120.083266 307 8444ft 92kts
23-Feb-21 09:25 34.795317 -120.109757 307 8416ft 92kts
23-Feb-21 09:26 34.809864 -120.136888 307 8424ft 97kts
23-Feb-21 09:27 34.825015 -120.165247 307 8443ft 103kts
23-Feb-21 09:28 34.842053 -120.194194 310 8477ft 106kts
23-Feb-21 09:29 34.859312 -120.222736 310 8447ft 102kts
23-Feb-21 09:30 34.875290 -120.249318 310 8414ft 90kts
23-Feb-21 09:31 34.889482 -120.274913 306 8154ft 92kts
23-Feb-21 09:32 34.903739 -120.299908 313 7593ft 90kts
23-Feb-21 09:33 34.918979 -120.325080 301 7090ft 94kts
23-Feb-21 09:34 34.934923 -120.349837 313 6637ft 94kts
23-Feb-21 09:35 34.952017 -120.374231 313 6217ft 94kts
23-Feb-21 09:36 34.967642 -120.400479 303 5818ft 96kts
23-Feb-21 09:37 34.982150 -120.428371 305 5435ft 97kts
23-Feb-21 09:38 34.998015 -120.455772 313 4950ft 100kts
23-Feb-21 09:39 35.016607 -120.483143 309 4287ft 107kts
23-Feb-21 09:40 35.033483 -120.513136 305 3663ft 109kts
23-Feb-21 09:41 35.054061 -120.540140 322 2838ft 107kts
23-Feb-21 09:42 35.072067 -120.567772 308 1560ft 93kts
23-Feb-21 09:43 35.085230 -120.591990 305 784ft 78kts
23-Feb-21 09:44 35.096935 -120.613699 303 154ft 74kts
23-Feb-21 09:45 35.103120 -120.625632 222 18ft 7kts
23-Feb-21 09:46 35.102157 -120.624391 102 21ft 0kts
23-Feb-21 09:47 35.102814 -120.623887 31 19ft 0kts
23-Feb-21 09:48 35.102413 -120.622848 217 18ft 0kts

Navigation Log

Ident Type
Flight plan parsing failed, navigation log unavailable